Time;durP1;ratioP1;P1;durP2;ratioP2;P2;SDS_P1;SDS_P2;PMS_P1;PMS_P2;Temp;Humidity;BMP_temperature;BMP_pressure;BME280_temperature;BME280_humidity;BME280_pressure;Samples;Min_cycle;Max_cycle;Signal;HPM_P1;HPM_P2
2022/08/20 00:00:53;;;;;;;19.88;7.70;;;;;;;;;;5100164;28;20390;-81
2022/08/20 00:03:26;;;;;;;19.52;8.15;;;;;;;;;;5100419;28;20028;-80
2022/08/20 00:05:55;;;;;;;23.58;8.13;;;;;;;;;;5099615;28;20048;-81
2022/08/20 00:08:21;;;;;;;22.25;8.38;;;;;;;;;;5100016;28;20016;-81
2022/08/20 00:10:48;;;;;;;21.27;9.15;;;;;;;;;;5099975;28;20394;-81
2022/08/20 00:13:16;;;;;;;25.60;8.70;;;;;;;;;;5099686;28;20024;-80
2022/08/20 00:15:42;;;;;;;32.83;10.50;;;;;;;;;;5100003;28;20024;-80
2022/08/20 00:18:08;;;;;;;22.20;9.13;;;;;;;;;;5099087;28;20031;-81
2022/08/20 00:20:36;;;;;;;24.08;9.30;;;;;;;;;;5099907;28;20031;-81
2022/08/20 00:23:03;;;;;;;21.45;8.55;;;;;;;;;;5099719;28;20021;-81
2022/08/20 00:25:29;;;;;;;22.23;8.90;;;;;;;;;;5099685;28;20102;-80
2022/08/20 00:27:57;;;;;;;20.40;9.00;;;;;;;;;;5099775;28;20093;-81
2022/08/20 00:30:24;;;;;;;19.98;9.02;;;;;;;;;;5099867;28;20047;-80
2022/08/20 00:32:51;;;;;;;20.27;9.02;;;;;;;;;;5099474;28;20020;-81
2022/08/20 00:35:18;;;;;;;22.75;8.90;;;;;;;;;;5099454;28;20034;-81
2022/08/20 00:37:44;;;;;;;21.45;8.80;;;;;;;;;;5099459;28;20028;-81
2022/08/20 00:40:12;;;;;;;20.85;8.57;;;;;;;;;;5098337;28;20477;-81
2022/08/20 00:42:42;;;;;;;19.40;8.82;;;;;;;;;;5099188;28;20031;-80
2022/08/20 00:45:08;;;;;;;26.58;9.07;;;;;;;;;;5099287;28;20417;-80
2022/08/20 00:47:35;;;;;;;20.55;8.25;;;;;;;;;;5099259;28;20414;-81
2022/08/20 00:50:01;;;;;;;19.88;8.55;;;;;;;;;;5098144;28;20365;-81
2022/08/20 00:52:27;;;;;;;25.23;9.57;;;;;;;;;;5099227;28;20024;-81
2022/08/20 00:54:57;;;;;;;17.88;8.73;;;;;;;;;;5098155;28;20032;-81
2022/08/20 00:57:33;;;;;;;23.45;8.93;;;;;;;;;;5098076;28;20051;-80
2022/08/20 01:00:01;;;;;;;22.60;8.95;;;;;;;;;;5099283;28;20036;-80
2022/08/20 01:02:28;;;;;;;18.95;8.23;;;;;;;;;;5099025;28;20016;-81
2022/08/20 01:04:55;;;;;;;18.35;8.23;;;;;;;;;;5097797;28;20102;-81
2022/08/20 01:07:30;;;;;;;15.45;7.80;;;;;;;;;;5099269;28;20036;-81
2022/08/20 01:09:56;;;;;;;19.95;8.30;;;;;;;;;;5098774;28;20031;-81
2022/08/20 01:12:22;;;;;;;20.98;8.25;;;;;;;;;;5098040;28;20035;-81
2022/08/20 01:14:49;;;;;;;21.17;9.30;;;;;;;;;;5098441;28;20085;-80
2022/08/20 01:17:17;;;;;;;18.70;7.93;;;;;;;;;;5097706;28;20020;-80
2022/08/20 01:19:45;;;;;;;17.02;8.05;;;;;;;;;;5098721;28;20066;-80
2022/08/20 01:25:04;;;;;;;27.30;9.10;;;;;;;;;;5098772;28;20162;-80
2022/08/20 01:27:30;;;;;;;19.20;9.05;;;;;;;;;;5097699;28;20032;-81
2022/08/20 01:29:56;;;;;;;19.55;9.13;;;;;;;;;;5097421;28;20441;-81
2022/08/20 01:32:22;;;;;;;19.15;8.82;;;;;;;;;;5098502;28;20028;-81
2022/08/20 01:34:48;;;;;;;22.92;9.57;;;;;;;;;;5098296;28;20107;-81
2022/08/20 01:37:14;;;;;;;20.20;9.10;;;;;;;;;;5097530;28;20382;-81
2022/08/20 01:39:41;;;;;;;21.05;9.95;;;;;;;;;;5097211;28;20063;-81
2022/08/20 01:42:19;;;;;;;22.33;10.32;;;;;;;;;;5097983;28;20314;-81
2022/08/20 01:44:46;;;;;;;25.02;10.85;;;;;;;;;;5098408;28;20020;-81
2022/08/20 01:47:18;;;;;;;18.23;9.98;;;;;;;;;;5097411;28;20039;-80
2022/08/20 01:49:48;;;;;;;23.00;11.02;;;;;;;;;;5098014;28;20410;-80
2022/08/20 01:52:21;;;;;;;22.10;10.02;;;;;;;;;;5098308;28;20020;-80
2022/08/20 01:54:47;;;;;;;20.20;10.20;;;;;;;;;;5097019;28;20048;-80
2022/08/20 01:57:15;;;;;;;20.95;10.02;;;;;;;;;;5098033;28;20020;-80
2022/08/20 01:59:42;;;;;;;19.95;10.27;;;;;;;;;;5097851;28;20027;-80
2022/08/20 02:02:08;;;;;;;22.80;10.30;;;;;;;;;;5098031;28;20027;-80
2022/08/20 02:04:34;;;;;;;21.60;11.50;;;;;;;;;;5096122;28;20055;-80
2022/08/20 02:07:03;;;;;;;22.15;11.88;;;;;;;;;;5096735;28;20028;-80
2022/08/20 02:09:30;;;;;;;28.00;13.13;;;;;;;;;;5097632;28;20035;-80
2022/08/20 02:11:56;;;;;;;24.02;14.32;;;;;;;;;;5097888;28;20043;-80
2022/08/20 02:14:23;;;;;;;29.80;14.35;;;;;;;;;;5097674;28;20048;-81
2022/08/20 02:16:49;;;;;;;40.45;15.48;;;;;;;;;;5097600;28;20095;-80
2022/08/20 02:19:21;;;;;;;25.48;13.90;;;;;;;;;;5097345;28;20326;-80
2022/08/20 02:21:47;;;;;;;;;;;;;;;;;;5097242;28;20039;-81
2022/08/20 02:24:13;;;;;;;25.38;15.00;;;;;;;;;;5097455;28;19924;-81
2022/08/20 02:26:40;;;;;;;25.52;14.23;;;;;;;;;;5097306;28;20032;-80
2022/08/20 02:29:07;;;;;;;30.98;14.88;;;;;;;;;;5097443;28;20429;-80
2022/08/20 02:31:35;;;;;;;31.52;15.38;;;;;;;;;;5096639;28;20375;-81
2022/08/20 02:34:01;;;;;;;29.77;16.27;;;;;;;;;;5097264;28;20040;-81
2022/08/20 02:36:30;;;;;;;30.15;15.52;;;;;;;;;;5096574;28;20027;-80
2022/08/20 02:38:56;;;;;;;34.42;16.50;;;;;;;;;;5097396;28;20314;-80
2022/08/20 02:41:22;;;;;;;28.73;15.65;;;;;;;;;;5097386;28;20419;-81
2022/08/20 02:43:50;;;;;;;30.52;15.38;;;;;;;;;;5096379;28;20036;-80
2022/08/20 02:46:17;;;;;;;32.92;15.85;;;;;;;;;;5097255;28;20028;-80
2022/08/20 02:48:43;;;;;;;25.60;14.75;;;;;;;;;;5096331;28;20028;-80
2022/08/20 02:51:09;;;;;;;29.30;15.63;;;;;;;;;;5097216;28;20081;-81
2022/08/20 02:53:37;;;;;;;26.27;14.30;;;;;;;;;;5097070;28;20031;-80
2022/08/20 02:56:04;;;;;;;27.98;14.15;;;;;;;;;;5097200;28;20065;-80
2022/08/20 02:58:30;;;;;;;24.23;13.50;;;;;;;;;;5096072;28;20020;-79
2022/08/20 03:00:57;;;;;;;23.63;13.50;;;;;;;;;;5097146;28;20027;-79
2022/08/20 03:03:23;;;;;;;22.15;13.73;;;;;;;;;;5095958;28;20428;-80
2022/08/20 03:05:51;;;;;;;26.25;13.07;;;;;;;;;;5095816;28;20056;-80
2022/08/20 03:08:17;;;;;;;25.25;12.32;;;;;;;;;;5096957;28;20020;-80
2022/08/20 03:10:45;;;;;;;25.90;13.65;;;;;;;;;;5097158;28;20040;-80
2022/08/20 03:13:13;;;;;;;25.98;13.32;;;;;;;;;;5097014;28;20341;-80
2022/08/20 03:15:41;;;;;;;27.20;12.73;;;;;;;;;;5098100;28;20430;-80
2022/08/20 03:18:07;;;;;;;21.58;12.10;;;;;;;;;;5101056;28;20024;-79
2022/08/20 03:20:34;;;;;;;19.08;12.18;;;;;;;;;;5101257;28;20094;-80
2022/08/20 03:23:00;;;;;;;22.05;12.48;;;;;;;;;;5101244;28;20314;-80
2022/08/20 03:25:26;;;;;;;18.30;12.20;;;;;;;;;;5100934;28;20028;-80
2022/08/20 03:27:52;;;;;;;23.70;12.20;;;;;;;;;;5100968;28;20058;-80
2022/08/20 03:30:18;;;;;;;20.75;12.60;;;;;;;;;;5100801;28;20024;-80
2022/08/20 03:32:45;;;;;;;23.17;12.32;;;;;;;;;;5100834;28;20020;-80
2022/08/20 03:35:12;;;;;;;22.60;12.73;;;;;;;;;;5100998;28;20027;-80
2022/08/20 03:37:38;;;;;;;22.65;13.05;;;;;;;;;;5100742;28;20410;-81
2022/08/20 03:40:09;;;;;;;19.88;12.43;;;;;;;;;;5100578;28;20028;-81
2022/08/20 03:42:36;;;;;;;22.60;12.30;;;;;;;;;;5100648;28;20502;-80
2022/08/20 03:45:02;;;;;;;25.05;11.85;;;;;;;;;;5100518;28;20414;-80
2022/08/20 03:47:28;;;;;;;25.70;13.60;;;;;;;;;;5099396;28;20020;-80
2022/08/20 03:49:58;;;;;;;22.63;13.63;;;;;;;;;;5100652;28;20027;-80
2022/08/20 03:52:24;;;;;;;28.75;14.18;;;;;;;;;;5100671;28;20024;-80
2022/08/20 03:54:50;;;;;;;21.08;12.43;;;;;;;;;;5100084;28;20168;-80
2022/08/20 03:57:16;;;;;;;22.20;12.20;;;;;;;;;;5099074;28;20044;-80
2022/08/20 03:59:43;;;;;;;23.25;11.98;;;;;;;;;;5100234;28;20024;-80
2022/08/20 04:02:10;;;;;;;24.05;13.00;;;;;;;;;;5099258;28;20360;-80
2022/08/20 04:04:37;;;;;;;26.38;13.70;;;;;;;;;;5099865;28;20097;-80
2022/08/20 04:07:14;;;;;;;28.15;13.32;;;;;;;;;;5100090;28;20039;-80
2022/08/20 04:09:40;;;;;;;23.27;13.10;;;;;;;;;;5100048;28;20050;-80
2022/08/20 04:12:07;;;;;;;26.92;12.93;;;;;;;;;;5099301;28;20036;-81
2022/08/20 04:14:35;;;;;;;22.05;12.52;;;;;;;;;;5098845;28;20316;-81
2022/08/20 04:17:04;;;;;;;29.85;13.60;;;;;;;;;;5100246;28;20027;-81
2022/08/20 04:19:30;;;;;;;24.75;13.60;;;;;;;;;;5100100;28;20027;-81
2022/08/20 04:21:56;;;;;;;26.05;13.35;;;;;;;;;;5100012;28;20016;-81
2022/08/20 04:24:22;;;;;;;27.13;12.85;;;;;;;;;;5099073;28;20043;-81
2022/08/20 04:26:48;;;;;;;24.73;12.52;;;;;;;;;;5099356;28;20024;-81
2022/08/20 04:29:14;;;;;;;25.80;12.15;;;;;;;;;;5099659;28;20085;-80
2022/08/20 04:31:40;;;;;;;23.98;11.73;;;;;;;;;;5099742;28;20028;-81
2022/08/20 04:34:06;;;;;;;17.20;11.05;;;;;;;;;;5099755;28;20036;-81
2022/08/20 04:36:34;;;;;;;20.27;11.38;;;;;;;;;;5099640;28;20082;-81
2022/08/20 04:39:00;;;;;;;22.40;10.63;;;;;;;;;;5099687;28;20024;-81
2022/08/20 04:41:26;;;;;;;19.80;10.82;;;;;;;;;;5099489;28;20024;-81
2022/08/20 04:43:53;;;;;;;21.98;11.10;;;;;;;;;;5098463;28;20024;-81
2022/08/20 04:46:20;;;;;;;26.88;10.30;;;;;;;;;;5099371;28;20024;-82
2022/08/20 04:48:46;;;;;;;20.77;10.35;;;;;;;;;;5099427;28;20065;-81
2022/08/20 04:51:13;;;;;;;19.50;10.65;;;;;;;;;;5098229;28;20032;-81
2022/08/20 04:53:40;;;;;;;25.38;11.13;;;;;;;;;;5099450;28;20032;-81
2022/08/20 04:56:06;;;;;;;18.77;10.43;;;;;;;;;;5099163;28;20424;-82
2022/08/20 04:58:35;;;;;;;18.35;9.90;;;;;;;;;;5099309;28;20318;-82
2022/08/20 05:01:11;;;;;;;25.13;10.73;;;;;;;;;;5099015;28;20444;-81
2022/08/20 05:03:41;;;;;;;24.92;11.32;;;;;;;;;;5097897;28;20047;-82
2022/08/20 05:06:08;;;;;;;21.85;10.85;;;;;;;;;;5098996;28;20032;-82
2022/08/20 05:08:34;;;;;;;18.27;9.80;;;;;;;;;;5099075;28;20016;-81
2022/08/20 05:11:01;;;;;;;22.10;11.18;;;;;;;;;;5099126;28;20031;-81
2022/08/20 05:13:28;;;;;;;20.88;11.18;;;;;;;;;;5098753;28;20043;-81
2022/08/20 05:15:54;;;;;;;20.23;10.35;;;;;;;;;;5098766;28;20024;-81
2022/08/20 05:18:22;;;;;;;23.45;10.70;;;;;;;;;;5099010;28;20043;-81
2022/08/20 05:20:49;;;;;;;18.23;10.73;;;;;;;;;;5098556;28;20048;-81
2022/08/20 05:23:16;;;;;;;24.15;11.57;;;;;;;;;;5105829;28;20016;-81
2022/08/20 05:25:42;;;;;;;22.05;11.32;;;;;;;;;;5103804;28;20024;-81
2022/08/20 05:28:12;;;;;;;23.88;12.13;;;;;;;;;;5107859;28;20024;-80
2022/08/20 05:30:43;;;;;;;21.23;11.50;;;;;;;;;;5109213;28;20036;-79
2022/08/20 05:33:10;;;;;;;18.60;10.23;;;;;;;;;;5118304;28;20165;-80
2022/08/20 05:35:37;;;;;;;22.17;11.20;;;;;;;;;;5117921;28;20134;-80
2022/08/20 05:38:04;;;;;;;23.80;11.82;;;;;;;;;;5117964;28;20043;-80
2022/08/20 05:40:30;;;;;;;19.80;11.02;;;;;;;;;;5118712;28;20051;-81
2022/08/20 05:42:56;;;;;;;19.92;11.43;;;;;;;;;;5118623;28;20030;-81
2022/08/20 05:45:22;;;;;;;29.35;12.25;;;;;;;;;;5118874;28;20020;-81
2022/08/20 05:47:49;;;;;;;21.70;11.85;;;;;;;;;;5118607;28;20024;-81
2022/08/20 05:50:16;;;;;;;23.70;11.98;;;;;;;;;;5118805;28;20024;-81
2022/08/20 05:52:42;;;;;;;23.02;11.85;;;;;;;;;;5118490;28;20063;-81
2022/08/20 05:55:09;;;;;;;25.30;12.60;;;;;;;;;;5118518;28;20325;-81
2022/08/20 05:57:35;;;;;;;21.60;12.32;;;;;;;;;;5118355;28;20016;-81
2022/08/20 06:00:05;;;;;;;19.92;11.50;;;;;;;;;;5118681;28;20020;-82
2022/08/20 06:05:15;;;;;;;26.50;11.02;;;;;;;;;;5118265;28;20354;-82
2022/08/20 06:07:42;;;;;;;23.23;10.75;;;;;;;;;;5117299;28;20428;-81
2022/08/20 06:10:10;;;;;;;20.73;10.75;;;;;;;;;;5117812;28;20054;-81
2022/08/20 06:12:36;;;;;;;22.25;11.30;;;;;;;;;;5118138;28;20031;-81
2022/08/20 06:15:02;;;;;;;18.92;11.10;;;;;;;;;;5118155;28;20081;-81
2022/08/20 06:17:28;;;;;;;22.45;11.10;;;;;;;;;;5117048;28;20130;-80
2022/08/20 06:19:55;;;;;;;18.38;10.60;;;;;;;;;;5117048;28;20385;-80
2022/08/20 06:22:21;;;;;;;20.30;11.68;;;;;;;;;;5118040;28;20060;-81
2022/08/20 06:24:47;;;;;;;20.08;10.63;;;;;;;;;;5117811;28;20321;-80
2022/08/20 06:27:15;;;;;;;20.92;12.32;;;;;;;;;;5117885;28;20024;-81
2022/08/20 06:29:41;;;;;;;24.73;12.02;;;;;;;;;;5117892;28;20027;-81
2022/08/20 06:32:07;;;;;;;27.25;13.00;;;;;;;;;;5117846;28;20445;-81
2022/08/20 06:34:33;;;;;;;22.25;12.00;;;;;;;;;;5116881;28;20071;-81
2022/08/20 06:36:59;;;;;;;21.42;10.68;;;;;;;;;;5117808;28;20027;-80
2022/08/20 06:39:28;;;;;;;23.60;9.90;;;;;;;;;;5117736;28;20030;-80
2022/08/20 06:41:57;;;;;;;23.83;9.93;;;;;;;;;;5117711;28;20328;-82
2022/08/20 06:44:23;;;;;;;22.85;9.65;;;;;;;;;;5117805;28;20043;-81
2022/08/20 06:46:49;;;;;;;18.05;8.45;;;;;;;;;;5117797;28;20031;-82
2022/08/20 06:49:15;;;;;;;19.98;9.35;;;;;;;;;;5117444;28;20397;-80
2022/08/20 06:51:41;;;;;;;19.95;8.30;;;;;;;;;;5117437;28;20409;-81
2022/08/20 06:54:07;;;;;;;22.55;7.72;;;;;;;;;;5117329;28;20061;-80
2022/08/20 06:56:34;;;;;;;17.95;8.27;;;;;;;;;;5116532;28;20313;-81
2022/08/20 06:59:00;;;;;;;16.90;8.73;;;;;;;;;;5117537;28;20015;-80
2022/08/20 07:01:26;;;;;;;20.73;8.60;;;;;;;;;;5117636;28;20043;-81
2022/08/20 07:03:52;;;;;;;19.02;8.15;;;;;;;;;;5116390;28;20314;-81
2022/08/20 07:06:21;;;;;;;16.92;7.65;;;;;;;;;;5117265;28;20031;-80
2022/08/20 07:08:47;;;;;;;18.08;8.00;;;;;;;;;;5117420;28;20321;-81
2022/08/20 07:11:13;;;;;;;14.18;8.02;;;;;;;;;;5116496;28;20035;-80
2022/08/20 07:13:40;;;;;;;20.75;8.55;;;;;;;;;;5117288;28;20415;-80
2022/08/20 07:16:06;;;;;;;19.23;9.18;;;;;;;;;;5117622;28;20030;-80
2022/08/20 07:18:32;;;;;;;18.73;9.15;;;;;;;;;;5117356;28;20058;-80
2022/08/20 07:20:58;;;;;;;20.33;10.25;;;;;;;;;;5116231;28;20023;-80
2022/08/20 07:23:25;;;;;;;38.67;21.80;;;;;;;;;;5117241;28;20111;-80
2022/08/20 07:25:51;;;;;;;20.20;10.60;;;;;;;;;;5117083;28;20421;-80
2022/08/20 07:28:19;;;;;;;21.67;9.88;;;;;;;;;;5115843;28;20020;-81
2022/08/20 07:33:30;;;;;;;56.65;18.75;;;;;;;;;;5087802;28;20066;-80
2022/08/20 07:36:00;;;;;;;42.03;15.82;;;;;;;;;;5076528;28;20036;-81
2022/08/20 07:38:28;;;;;;;46.85;14.77;;;;;;;;;;5089730;28;20028;-81
2022/08/20 07:40:56;;;;;;;37.60;14.80;;;;;;;;;;5096627;28;20028;-82
2022/08/20 07:43:23;;;;;;;38.97;13.13;;;;;;;;;;5096508;28;20025;-82
2022/08/20 07:45:54;;;;;;;38.70;14.25;;;;;;;;;;5096751;28;20027;-81
2022/08/20 07:48:20;;;;;;;39.20;15.50;;;;;;;;;;5096737;28;20016;-81
2022/08/20 07:50:48;;;;;;;38.33;13.25;;;;;;;;;;5096705;28;20429;-81
2022/08/20 07:53:15;;;;;;;33.00;13.02;;;;;;;;;;5095843;28;20040;-81
2022/08/20 07:55:43;;;;;;;23.58;11.13;;;;;;;;;;5096464;28;20035;-81
2022/08/20 07:58:10;;;;;;;28.77;11.68;;;;;;;;;;5078171;28;20025;-81
2022/08/20 08:00:37;;;;;;;28.55;12.18;;;;;;;;;;5076590;28;20303;-82
2022/08/20 08:03:03;;;;;;;24.65;10.70;;;;;;;;;;5079601;28;20021;-81
2022/08/20 08:05:30;;;;;;;26.50;9.95;;;;;;;;;;5079345;28;20338;-81
2022/08/20 08:07:57;;;;;;;25.38;10.18;;;;;;;;;;5096725;28;20068;-81
2022/08/20 08:10:24;;;;;;;20.42;8.07;;;;;;;;;;5079977;28;20107;-82
2022/08/20 08:12:51;;;;;;;26.65;9.48;;;;;;;;;;5078580;28;20032;-82
2022/08/20 08:15:30;;;;;;;24.40;9.98;;;;;;;;;;5079888;28;20115;-81
2022/08/20 08:17:59;;;;;;;22.38;8.93;;;;;;;;;;5081269;28;20020;-81
2022/08/20 08:20:25;;;;;;;24.00;9.38;;;;;;;;;;5095503;28;20032;-81
2022/08/20 08:22:52;;;;;;;22.23;9.57;;;;;;;;;;5099785;28;20024;-81
2022/08/20 08:25:18;;;;;;;25.55;9.63;;;;;;;;;;5087394;28;20090;-81
2022/08/20 08:27:47;;;;;;;25.88;10.57;;;;;;;;;;5079495;28;20021;-81
2022/08/20 08:30:14;;;;;;;25.55;9.20;;;;;;;;;;5078946;28;20361;-80
2022/08/20 08:35:25;;;;;;;22.40;8.93;;;;;;;;;;5098408;28;20046;-80
2022/08/20 08:37:52;;;;;;;24.45;9.90;;;;;;;;;;5099378;28;20013;-80
2022/08/20 08:40:19;;;;;;;25.35;9.75;;;;;;;;;;5098373;28;20054;-82
2022/08/20 08:42:47;;;;;;;21.50;8.88;;;;;;;;;;5099287;28;20096;-81
2022/08/20 08:45:16;;;;;;;24.35;9.75;;;;;;;;;;5099547;28;20160;-81
2022/08/20 08:47:43;;;;;;;23.80;10.38;;;;;;;;;;5099174;28;20055;-82
2022/08/20 08:50:15;;;;;;;24.02;9.90;;;;;;;;;;5098563;28;20084;-81
2022/08/20 08:52:43;;;;;;;25.38;10.25;;;;;;;;;;5079038;28;20036;-80
2022/08/20 08:55:14;;;;;;;27.40;9.88;;;;;;;;;;5078833;28;20319;-80
2022/08/20 08:57:40;;;;;;;25.70;9.75;;;;;;;;;;5079332;28;20092;-80
2022/08/20 09:00:14;;;;;;;23.45;9.57;;;;;;;;;;5079025;28;20361;-81
2022/08/20 09:02:52;;;;;;;21.60;9.93;;;;;;;;;;5079536;28;20024;-79
2022/08/20 09:05:20;;;;;;;15.88;9.85;;;;;;;;;;5078204;28;20110;-79
2022/08/20 09:07:48;;;;;;;24.02;10.38;;;;;;;;;;5078978;28;20070;-80
2022/08/20 09:10:16;;;;;;;20.45;10.23;;;;;;;;;;5078523;28;20020;-80
2022/08/20 09:12:43;;;;;;;25.17;10.52;;;;;;;;;;5077887;28;20110;-80
